Topsham, Vermont
Current Conditions -  °F | °C
As of 6:51 PM on Wednesday 22 Oct 2014 (Local Time) from KMPV Reporting Station
Light Rain Light Rain  
Wind Chill: 45°   Ceiling: 3600
Heat Index: 48°   Visibility: 10mi
Dew Point: 42°   Wind: 7mph
Humidity: 80%   Direction: 30°NNE
Pressure: 30.14"   Gusts: NA
Location:  44.0639°N, 72.2226°W
Report Text: KMPV 222251Z AUTO 03006KT 10SM -RA OVC036 09/06 A3014 RMK AO2 SLP213 P0001 T00890056 $
Loading
Personal Weather Stations






























Interactive Weather Map
Tropical Storm Tracking
New forecast layout! Learn more

10-Day Weather Forecast

Advertisements
Track Severe Weather on mobile